LOWW Airport Information

Runway Information
Runway 11 Length 11483 ft width 148 ft
Elevation 575 ft Threshold ft Heading 116
Runway 29 Length 11483 ft Width 148 ft
Elevation 600 ft Threshold ft Heading 296
Runway 16 Length 11811 ft width 148 ft
Elevation 597 ft Threshold ft Heading 164
Runway 34 Length 11811 ft Width 148 ft
Elevation 586 ft Threshold ft Heading 344
Airport Frequencies
Type APP Name WIEN RADAR Frequency 128.2 MHZ
Type ATIS Name ATIS Frequency 121.725 MHZ
Type CLD Name WIEN CLNC Frequency 122.125 MHZ
Type DIR Name DIRECTOR Frequency 119.8 MHZ
Type GND Name WIEN GND Frequency 121.6 MHZ
Type INFO Name INFO Frequency 118.525 MHZ
Type RMP Name VIENNA ICE Frequency 131.625 MHZ
Type TWR Name WIEN TWR Frequency 119.4 MHZ
Airport Navaids
Type NDB Name Bruck Frequency 408 KHZ
Type VOR-DME Name Fischamend Frequency 110400 KHZ
Type VOR-DME Name Sollenau Frequency 115500 KHZ
Type NDB Name Steinhof Frequency 293 KHZ
Type VOR-DME Name Wagram Frequency 112200 KHZ
Type NDB Name Schwechat Frequency 303 KHZ
Airport Weather Information & NOTAM
ADDS - METARS form results

(2342 UTC 09 August 2022)
Data provider http://aviationweather.gov/metar/data/
 
METAR text: LOWW 092320Z 01005KT CAVOK 18/10 Q1024 NOSIG
Conditions at: LOWW (VIENNA/SCHWECHAT, AT) observed 2320 UTC 09 August 2022
Temperature: 18.0°C (64°F)
Dewpoint: 10.0°C (50°F) [RH = 59%]
Pressure (altimeter): 30.24 inches Hg (1024.0 mb)
Winds: from the N (10 degrees) at 6 MPH (5 knots; 2.6 m/s)
Visibility: 6 or more miles (10+ km)
Ceiling: ceiling and visibility are OK
Clouds: unknown
Weather: no significant weather observed at this time

METAR text: LOWW 092250Z 35008KT CAVOK 18/10 Q1024 NOSIG
Conditions at: LOWW (VIENNA/SCHWECHAT, AT) observed 2250 UTC 09 August 2022
Temperature: 18.0°C (64°F)
Dewpoint: 10.0°C (50°F) [RH = 59%]
Pressure (altimeter): 30.24 inches Hg (1024.0 mb)
Winds: from the N (350 degrees) at 9 MPH (8 knots; 4.1 m/s)
Visibility: 6 or more miles (10+ km)
Ceiling: ceiling and visibility are OK
Clouds: unknown
Weather: no significant weather observed at this time

Forecast for: LOWW (VIENNA/SCHWECHAT, AT)
Text: TAF LOWW 092315Z 1000/1106 35007KT CAVOK TX27/1013Z TN14/1103Z
Forecast period: 0000 UTC 10 August 2022 to 0600 UTC 11 August 2022
Forecast type: FROM: standard forecast or significant change
Winds: from the N (350 degrees) at 8 MPH (7 knots; 3.6 m/s)
Visibility: 6 or more miles (10+ km)
Ceiling: unknown
Clouds: missing
Weather: no significant weather forecast for this period